Weather History for Tarboro, NC

Change the Weather History Date:

Saturday, March 16, 2013

  Actual Average Record
Temperature  
Mean Temperature 63 °F -  
Max Temperature 77 °F 63 °F 87 °F (1990)
Min Temperature 49 °F 37 °F 16 °F (1993)
Degree Days  
Heating Degree Days 2    
Growing Degree Days 13 (Base 50)    
Moisture  
Dew Point 43 °F    
Average Humidity 53    
Maximum Humidity 80    
Minimum Humidity 31    
Precipitation  
Precipitation 0.00 in - - ()
Sea Level Pressure  
Sea Level Pressure 29.79 in    
Wind  
Wind Speed 7 mph (SW)    
Max Wind Speed 15 mph    
Max Gust Speed 24 mph    
Visibility 10 miles    
Events Rain    
Averages and records for this station are not official NWS values.
T = Trace of Precipitation, MM = Missing Value Source: NWS Daily Summary

Daily Weather History Graph

Daily Weather History Graph

Search for Another Location

Airport:

Trip Planner

Search our weather history database for the weather conditions in past years. The results will help you decide how hot, cold, wet, or windy it might be!

Date:

Astronomy

Mar. 16, 2013 Rise Set
Actual Time 7:19 AM EDT 7:18 PM EDT
Civil Twilight 6:53 AM EDT 7:44 PM EDT
Nautical Twilight 6:23 AM EDT 8:14 PM EDT
Astronomical Twilight 5:53 AM EDT 8:44 PM EDT
Moon 9:57 AM EDT (3/16) No Moon Set
Length of Visible Light 12h 50m
Length of Day
11h 59m
Waxing Crescent, 23% of the Moon is Illuminated
Mar 16
Waxing Crescent
Mar 19
First Quarter
Mar 27
Full
Apr 3
Last Quarter
Apr 10
New

Hourly Weather History & Observations

Time (EDT) Temp. Dew Point Humidity Pressure Visibility Wind Dir Wind Speed Gust Speed Precip Events Conditions
12:15 AM 52.2 °F 34.3 °F 51% 29.90 in 10.0 mi SSW 8.1 mph - N/A   Clear
12:35 AM 51.8 °F 34.7 °F 52% 29.90 in 10.0 mi SSW 5.8 mph - N/A   Clear
12:55 AM 51.3 °F 34.9 °F 54% 29.90 in 10.0 mi SSW 5.8 mph - N/A   Clear
1:35 AM 50.0 °F 35.6 °F 58% 29.88 in 10.0 mi South 4.6 mph - N/A   Clear
1:55 AM 49.8 °F 35.6 °F 58% 29.88 in 10.0 mi SSW 3.5 mph - N/A   Clear
2:15 AM 49.5 °F 35.8 °F 59% 29.88 in 10.0 mi SSW 3.5 mph - N/A   Clear
2:35 AM 49.3 °F 36.0 °F 60% 29.87 in 10.0 mi SSW 3.5 mph - N/A   Clear
2:55 AM 49.5 °F 36.5 °F 61% 29.86 in 10.0 mi SSW 4.6 mph - N/A   Clear
3:15 AM 50.0 °F 37.0 °F 61% 29.86 in 10.0 mi SW 3.5 mph - N/A   Clear
3:35 AM 50.5 °F 37.4 °F 61% 29.85 in 10.0 mi SW 5.8 mph - N/A   Clear
3:55 AM 50.7 °F 37.6 °F 61% 29.85 in 10.0 mi SW 6.9 mph - N/A   Clear
4:15 AM 50.5 °F 37.8 °F 62% 29.84 in 10.0 mi SW 5.8 mph - N/A   Clear
4:35 AM 50.2 °F 37.8 °F 62% 29.84 in 10.0 mi SW 4.6 mph - N/A   Clear
4:55 AM 50.0 °F 37.9 °F 63% 29.84 in 10.0 mi SW 4.6 mph - N/A   Scattered Clouds
5:15 AM 49.6 °F 38.1 °F 65% 29.84 in 10.0 mi SW 4.6 mph - N/A   Scattered Clouds
5:35 AM 50.4 °F 38.5 °F 64% 29.84 in 10.0 mi SSW 3.5 mph - N/A   Mostly Cloudy
5:55 AM 50.5 °F 38.7 °F 64% 29.84 in 10.0 mi SW 3.5 mph - N/A   Mostly Cloudy
6:15 AM 50.9 °F 39.0 °F 64% 29.84 in 10.0 mi Calm Calm - N/A   Mostly Cloudy
6:35 AM 51.1 °F 39.2 °F 64% 29.84 in 10.0 mi SW 3.5 mph - N/A   Overcast
6:55 AM 51.6 °F 39.4 °F 63% 29.84 in 10.0 mi SW 4.6 mph - N/A   Overcast
7:35 AM 52.3 °F 39.9 °F 63% 29.85 in 10.0 mi Calm Calm - N/A   Overcast
7:55 AM 52.5 °F 40.1 °F 63% 29.84 in 10.0 mi South 4.6 mph - N/A   Overcast
8:15 AM 52.9 °F 40.3 °F 62% 29.84 in 10.0 mi SSW 3.5 mph - N/A   Scattered Clouds
8:35 AM 54.0 °F 40.6 °F 61% 29.83 in 10.0 mi SSW 6.9 mph - N/A   Clear
8:55 AM 56.1 °F 41.2 °F 57% 29.83 in 10.0 mi SW 12.7 mph 16.1 mph N/A   Clear
9:15 AM 57.4 °F 41.2 °F 55% 29.83 in 10.0 mi WSW 9.2 mph - N/A   Mostly Cloudy
9:35 AM 57.2 °F 41.9 °F 57% 29.85 in 10.0 mi WSW 6.9 mph - N/A Rain Light Rain
9:55 AM 56.1 °F 43.9 °F 64% 29.84 in 10.0 mi SW 3.5 mph - N/A   Overcast
10:15 AM 56.8 °F 43.5 °F 61% 29.85 in 10.0 mi WSW 4.6 mph - N/A Rain Light Rain
10:35 AM 56.3 °F 44.2 °F 64% 29.84 in 10.0 mi SW 3.5 mph - N/A Rain Light Rain
10:55 AM 55.8 °F 46.0 °F 70% 29.82 in 10.0 mi South 5.8 mph - N/A   Overcast
11:15 AM 58.3 °F 46.6 °F 65% 29.82 in 10.0 mi SSW 9.2 mph - N/A   Overcast
11:35 AM 61.2 °F 46.6 °F 59% 29.80 in 10.0 mi SW 10.4 mph - N/A   Mostly Cloudy
11:55 AM 64.0 °F 46.9 °F 54% 29.79 in 10.0 mi SW 10.4 mph - N/A   Scattered Clouds
12:15 PM 67.1 °F 46.6 °F 48% 29.79 in 10.0 mi SW 13.8 mph 18.4 mph N/A   Clear
12:35 PM 68.5 °F 46.2 °F 45% 29.78 in 10.0 mi SSW 15.0 mph 20.7 mph N/A   Clear
12:55 PM 68.2 °F 45.7 °F 44% 29.77 in 10.0 mi WSW 12.7 mph 18.4 mph N/A   Scattered Clouds
1:15 PM 67.5 °F 46.0 °F 46% 29.77 in 10.0 mi WSW 9.2 mph - N/A   Mostly Cloudy
1:35 PM 68.4 °F 46.4 °F 45% 29.75 in 10.0 mi SW 11.5 mph 16.1 mph N/A   Scattered Clouds
1:55 PM 71.1 °F 46.4 °F 41% 29.74 in 10.0 mi SW 8.1 mph 16.1 mph N/A   Scattered Clouds
2:15 PM 73.6 °F 45.7 °F 37% 29.74 in 10.0 mi WSW 12.7 mph 20.7 mph N/A   Scattered Clouds
2:35 PM 74.8 °F 45.3 °F 35% 29.72 in 10.0 mi WSW 12.7 mph 18.4 mph N/A   Clear
2:55 PM 75.0 °F 45.0 °F 34% 29.71 in 10.0 mi SW 13.8 mph 19.6 mph N/A   Clear
3:15 PM 75.4 °F 44.2 °F 33% 29.71 in 10.0 mi WSW 13.8 mph 18.4 mph N/A   Clear
3:35 PM 75.6 °F 44.4 °F 33% 29.70 in 10.0 mi WSW 12.7 mph 19.6 mph N/A   Clear
3:55 PM 75.0 °F 44.4 °F 34% 29.70 in 10.0 mi SW 13.8 mph 19.6 mph N/A   Clear
4:15 PM 75.4 °F 44.6 °F 33% 29.69 in 10.0 mi SW 5.8 mph 16.1 mph N/A   Clear
4:35 PM 75.7 °F 45.0 °F 33% 29.67 in 10.0 mi SW 12.7 mph 16.1 mph N/A   Clear
4:55 PM 76.3 °F 45.0 °F 33% 29.66 in 10.0 mi SW 11.5 mph - N/A   Clear
5:15 PM 77.5 °F 45.1 °F 32% 29.66 in 10.0 mi SSW 12.7 mph 16.1 mph N/A   Clear
5:35 PM 77.9 °F 45.0 °F 31% 29.65 in 10.0 mi SW 8.1 mph 12.7 mph N/A   Clear
5:55 PM 77.7 °F 44.6 °F 31% 29.65 in 10.0 mi SW 13.8 mph 20.7 mph N/A   Clear
6:15 PM 76.6 °F 44.1 °F 31% 29.64 in 10.0 mi SW 9.2 mph 18.4 mph N/A   Clear
6:35 PM 75.0 °F 44.2 °F 33% 29.64 in 10.0 mi SSW 9.2 mph - N/A   Clear
6:55 PM 73.9 °F 44.8 °F 35% 29.64 in 10.0 mi SSW 6.9 mph - N/A   Clear
7:15 PM 72.7 °F 45.3 °F 38% 29.65 in 10.0 mi SW 6.9 mph - N/A   Clear
7:35 PM 71.6 °F 45.9 °F 40% 29.66 in 10.0 mi SSW 5.8 mph - N/A   Clear
7:55 PM 71.8 °F 45.0 °F 38% 29.67 in 10.0 mi SW 8.1 mph - N/A   Clear
8:15 PM 72.1 °F 43.9 °F 36% 29.69 in 10.0 mi WSW 6.9 mph - N/A   Scattered Clouds
8:35 PM 71.8 °F 43.9 °F 37% 29.73 in 10.0 mi WNW 8.1 mph - N/A   Mostly Cloudy
8:55 PM 70.3 °F 47.8 °F 45% 29.78 in 10.0 mi NNW 9.2 mph 24.2 mph N/A   Overcast
9:15 PM 66.7 °F 52.2 °F 59% 29.79 in 10.0 mi NNW 6.9 mph - N/A   Overcast
9:55 PM 64.2 °F 53.4 °F 68% 29.80 in 10.0 mi Calm Calm - N/A   Overcast
10:15 PM 63.5 °F 53.2 °F 69% 29.80 in 10.0 mi Calm Calm - N/A   Overcast
10:55 PM 60.8 °F 53.4 °F 77% 29.82 in 10.0 mi Calm Calm - N/A   Overcast
11:15 PM 60.8 °F 53.4 °F 77% 29.82 in 10.0 mi Calm Calm - N/A   Overcast
11:35 PM 60.3 °F 53.4 °F 78% 29.82 in 10.0 mi Calm Calm - N/A   Overcast
11:55 PM 59.5 °F 53.4 °F 80% 29.82 in 10.0 mi Calm Calm - N/A   Overcast